AirBox status report


DeploymentNumber of DevicesDetailAvg. TemperatureAvg. HumidityAvg. PM2.5Version
1 Edimax AirBox (Taipei) 18.71% (29/155) [HTML] [JSON] [Dataset A]23.36℃ 106.17% 32.66 μg/m3 2018-01-19T17:01:57Z
2 Edimax AirBox (New Taipei) 41.95% (125/298) [HTML] [JSON] [Dataset B]22.15℃ 96.2% 34.05 μg/m3 2018-01-19T17:01:57Z
3 Edimax AirBox (Taoyuan) 41.7% (98/235) [HTML] [JSON] [Dataset A]22.15℃ 90.81% 42.81 μg/m3 2018-01-19T17:01:57Z
4 Edimax AirBox (Taichung) 78.02% (181/232) [HTML] [JSON] [Dataset B]23.5℃ 92.78% 42.96 μg/m3 2018-01-19T17:01:57Z
5 Edimax AirBox (Tainan) 62.15% (133/214) [HTML] [JSON] [Dataset B]23.82℃ 95.27% 48.14 μg/m3 2018-01-19T17:01:57Z
6 Edimax AirBox (Kaohsiung) 39.67% (96/242) [HTML] [JSON] [Dataset B]26.55℃ 92.07% 60.18 μg/m3 2018-01-19T17:01:57Z
7 Edimax AirBox (LASS) 13.51% (10/74) [HTML] [JSON] [Dataset A]26.85℃ 85% 44 μg/m3 2018-01-19T17:01:57Z
8 Edimax AirBox (TaichungZero) 68.24% (101/148) [HTML] [JSON] [Dataset A]23.37℃ 90.78% 45.76 μg/m3 2018-01-19T17:01:57Z
9 Edimax AirBox (TaoyuanFirst) 81.48% (22/27) [HTML] [JSON] [Dataset A]21.08℃ 96.32% 44.09 μg/m3 2018-01-19T17:01:57Z
10 Edimax AirBox (other) 100% (701/701) [HTML] [JSON] [Dataset A]22.37℃ 86% 48 μg/m3 2018-01-19T17:01:57Z
11 LASS AirBox (Hsinchu) 54% (27/50) [HTML] [JSON] [Dataset A]22.4℃ 89.04% 47.81 μg/m3 2018-01-19T17:01:57Z
12 LASS AirBox (Yunlin) 50.78% (98/193) [HTML] [JSON] [Dataset A]23.3℃ 88.38% 49.77 μg/m3 2018-01-19T17:01:57Z
13 LASS AirBox (Chiayi) 49.02% (25/51) [HTML] [JSON] [Dataset A]24.28℃ 84.12% 51.36 μg/m3 2018-01-19T17:01:57Z
14 LASS AirBox (Chiayi County) 12.78% (23/180) [HTML] [JSON] [Dataset A]22.7℃ 79.04% 52.22 μg/m3 2018-01-19T17:01:57Z
15 LASS AirBox (Kinmen) 50% (12/24) [HTML] [JSON] [Dataset A]20.17℃ 73.5% 52 μg/m3 2018-01-19T17:01:57Z
16 LASS (LASS FT) 100% (90/90) [HTML] [JSON] [Dataset C]20.28℃ 67.98% 39.29 μg/m3 2018-01-19T17:01:57Z
17 LASS (LASS4U) 100% (83/83) [HTML] [JSON] [Dataset D]21.88℃ 71.94% 35.84 μg/m3 2018-01-19T17:01:57Z
18 MAPS (LoRa) 0% (0/5) [HTML] [JSON] [Dataset E]0℃ 0% 0 μg/m3 2018-01-19T17:01:57Z
19 MAPS (WiFi) 13.79% (12/87) [HTML] [JSON] [Dataset E]-18.4℃ 31.5% 52.75 μg/m3 2018-01-19T17:01:57Z
20 MAPS (other) NAN% (0/0) [HTML] [JSON] [Dataset E]0℃ 0% 0 μg/m3 2018-01-19T17:01:57Z
21 EEVEE 100% (22/22) [HTML] [JSON] [Dataset F]18.58℃ 94.95% 66.73 μg/m3 2018-01-19T17:01:57Z
22 *Asus AirBox 100% (72/72) [HTML] [JSON] [Dataset G]22.25℃ 89.33% 45.89 μg/m3 2018-01-19T17:01:57Z
23 *gov Indie NAN% (0/0) [HTML] [JSON] [Dataset H]0℃ 0% 0 μg/m3 2018-01-19T17:01:57Z
24 *ProbeCube 100% (6/6) [HTML] [JSON] [Dataset I]21.87℃ 64.43% 37.33 μg/m3 2018-01-19T17:01:57Z
25 Total 61.65% (1966/3189)

Resource:

Note: